Time;durP1;ratioP1;P1;durP2;ratioP2;P2;SDS_P1;SDS_P2;PMS_P1;PMS_P2;Temp;Humidity;BMP_temperature;BMP_pressure;BME280_temperature;BME280_humidity;BME280_pressure;Samples;Min_cycle;Max_cycle;Signal;HPM_P1;HPM_P2
2022/07/08 15:34:27;;;;;;;3.52;1.50;;;;;;;24.96;51.92;100484.28;2362114;80;25535;-75
2022/07/08 15:37:48;;;;;;;5.67;1.50;;;;;;;24.88;51.72;100481.88;2356103;84;25783;-75
2022/07/08 15:41:10;;;;;;;1.85;1.22;;;;;;;24.88;51.52;100484.55;2358409;83;25697;-75
2022/07/08 15:44:33;;;;;;;4.50;1.40;;;;;;;24.98;51.37;100487.78;2348241;83;25679;-76
2022/07/08 15:48:00;;;;;;;1.22;0.82;;;;;;;24.92;50.38;100479.98;2327450;84;25588;-76
2022/07/08 15:51:21;;;;;;;2.45;1.40;;;;;;;24.90;50.59;100477.34;2314639;84;25701;-74
2022/07/08 15:54:43;;;;;;;3.45;1.20;;;;;;;25.02;50.75;100497.87;2313671;85;25960;-74
2022/07/08 15:58:35;;;;;;;2.10;1.10;;;;;;;25.17;50.60;100501.36;2303007;84;25920;-88
2022/07/08 16:03:02;;;;;;;;;;;;;;;;;;;;;
2022/07/08 16:11:23;;;;;;;4.72;0.78;;;;;;;24.65;50.18;100539.96;1914893;101;25891;-85
2022/07/08 16:15:13;;;;;;;3.77;0.70;;;;;;;24.50;50.53;100556.42;1856747;106;26208;-88
2022/07/08 16:18:42;;;;;;;1.57;0.93;;;;;;;24.38;50.93;100553.66;1857844;106;25693;-88
2022/07/08 16:26:40;;;;;;;3.47;0.93;;;;;;;24.31;51.23;100546.77;1795556;109;25767;-91
2022/07/08 16:30:52;;;;;;;;;;;;;;;;;;;;;
2022/07/08 16:40:17;;;;;;;;;;;;;;;;;;;;;
2022/07/08 16:44:02;;;;;;;;;;;;;;;;;;;;;
2022/07/08 16:47:30;;;;;;;1.80;0.60;;;;;;;24.65;51.46;100553.29;1664647;117;26454;-90
2022/07/08 16:51:16;;;;;;;0.93;0.50;;;;;;;24.76;51.57;100546.27;1692353;115;25993;-90
2022/07/08 16:55:20;;;;;;;0.75;0.50;;;;;;;24.87;51.59;100548.58;1718520;114;26194;-89
2022/07/08 16:59:12;;;;;;;0.60;0.40;;;;;;;24.89;51.44;100548.09;1751876;110;26095;-85
2022/07/08 17:03:12;;;;;;;0.60;0.60;;;;;;;24.85;51.06;100549.98;1762343;107;25882;-85
2022/07/08 17:06:42;;;;;;;3.33;0.60;;;;;;;24.81;51.19;100547.02;1730292;111;25878;-86
2022/07/08 17:10:34;;;;;;;5.40;1.02;;;;;;;24.81;51.32;100552.34;1761941;104;25943;-84
2022/07/08 17:14:03;;;;;;;2.47;0.60;;;;;;;24.76;51.78;100558.27;1873464;104;26303;-85
2022/07/08 17:21:49;;;;;;;3.00;0.95;;;;;;;24.61;52.23;100559.64;1852889;106;25860;-85
2022/07/08 17:25:48;;;;;;;0.90;0.62;;;;;;;24.56;52.46;100559.37;1852933;105;25982;-87
2022/07/08 17:33:11;;;;;;;;;;;;;;;;;;;;;
2022/07/08 17:45:23;;;;;;;;;;;;;;;;;;;;;
2022/07/08 18:07:55;;;;;;;3.58;0.60;;;;;;;23.26;55.22;100577.20;1710909;115;25886;-81
2022/07/08 18:11:21;;;;;;;0.93;0.40;;;;;;;23.05;55.30;100576.84;1715060;114;26113;-77
2022/07/08 18:15:22;;;;;;;;;;;;;;;;;;;;;
2022/07/08 18:19:48;;;;;;;;;;;;;;;;;;;;;
2022/07/08 18:23:16;;;;;;;0.80;0.37;;;;;;;22.70;56.11;100574.97;1761622;110;25965;-80
2022/07/08 18:31:15;;;;;;;0.80;0.50;;;;;;;22.63;56.35;100579.55;1812011;107;25849;-80
2022/07/08 18:39:09;;;;;;;2.95;0.50;;;;;;;22.54;56.64;100589.52;1797223;108;25815;-82
2022/07/08 18:42:55;;;;;;;7.28;0.62;;;;;;;22.46;56.71;100596.34;1777569;109;25905;-83
2022/07/08 18:46:30;;;;;;;1.12;0.57;;;;;;;22.38;56.94;100596.97;1794980;109;26787;-81
2022/07/08 18:50:11;;;;;;;4.47;0.70;;;;;;;22.27;57.10;100594.97;1798435;109;25917;-81
2022/07/08 18:53:53;;;;;;;0.80;0.72;;;;;;;22.18;57.35;100598.72;1765429;110;25938;-82
2022/07/08 18:58:06;;;;;;;0.78;0.60;;;;;;;22.12;57.57;100596.15;1794040;108;26091;-82
2022/07/08 19:01:35;;;;;;;0.95;0.53;;;;;;;22.08;57.75;100598.45;1844528;105;25811;-82
2022/07/08 19:05:30;;;;;;;;;;;;;;;;;;;;;
2022/07/08 19:09:15;;;;;;;3.83;0.68;;;;;;;21.89;58.18;100605.89;1847075;103;25903;-82
2022/07/08 19:13:11;;;;;;;;;;;;;;;;;;;;;
2022/07/08 19:16:43;;;;;;;0.88;0.68;;;;;;;21.65;58.77;100612.08;1869695;103;25854;-90
2022/07/08 19:20:35;;;;;;;;;;;;;;;;;;;;;
2022/07/08 19:24:37;;;;;;;0.80;0.78;;;;;;;21.64;59.27;100620.09;1921227;101;25861;-90
2022/07/08 19:32:58;;;;;;;5.45;0.95;;;;;;;21.41;59.62;100624.47;1812158;107;25705;-89
2022/07/08 19:36:32;;;;;;;2.67;0.85;;;;;;;21.45;59.95;100629.67;1801496;107;26258;-89
2022/07/08 19:44:01;;;;;;;1.22;0.72;;;;;;;21.49;59.92;100633.16;1712923;112;26105;-87
2022/07/08 19:47:27;;;;;;;7.53;0.73;;;;;;;21.36;59.94;100639.14;1694595;115;26030;-88
2022/07/08 19:51:22;;;;;;;3.30;0.75;;;;;;;21.20;59.97;100634.95;1643694;118;25889;-87
2022/07/08 19:55:07;;;;;;;1.82;0.60;;;;;;;21.18;60.13;100638.06;1645829;118;26235;-88
2022/07/08 19:58:40;;;;;;;1.52;0.60;;;;;;;21.05;59.89;100634.72;1658783;118;25960;-88
2022/07/08 20:02:19;;;;;;;1.05;0.50;;;;;;;20.94;59.80;100642.84;1699757;115;26172;-88
2022/07/08 20:05:53;;;;;;;;;;;;;;;20.83;59.81;100643.46;1691941;115;26026;-87
2022/07/08 20:09:37;;;;;;;;;;;;;;;;;;;;;
2022/07/08 20:14:05;;;;;;;4.78;0.57;;;;;;;20.59;59.87;100648.66;1641168;120;25976;-86
2022/07/08 20:17:39;;;;;;;6.10;0.72;;;;;;;20.48;59.76;100643.44;1645338;118;26106;-86
2022/07/08 20:22:25;;;;;;;;;;;;;;;;;;;;;
2022/07/08 20:27:13;;;;;;;3.05;0.70;;;;;;;20.38;59.82;100651.52;1612764;121;25962;-90
2022/07/08 20:31:17;;;;;;;2.25;0.60;;;;;;;20.29;59.83;100652.53;1615715;121;25873;-89
2022/07/08 20:34:59;;;;;;;1.02;0.60;;;;;;;20.29;59.74;100650.75;1613053;121;26356;-89
2022/07/08 20:39:31;;;;;;;1.42;0.78;;;;;;;20.25;59.65;100647.72;1620261;119;26001;-89
2022/07/08 20:43:11;;;;;;;;;;;;;;;;;;;;;
2022/07/08 20:46:57;;;;;;;1.02;0.57;;;;;;;20.07;59.26;100646.59;1650130;118;25972;-90
2022/07/08 21:06:04;;;;;;;;;;;;;;;;;;;;;
2022/07/08 21:10:07;;;;;;;;;;;;;;;;;;;;;
2022/07/08 21:36:45;;;;;;;5.95;1.27;;;;;;;19.61;58.93;100638.20;1535711;125;26038;-86
2022/07/08 21:40:22;;;;;;;1.37;0.50;;;;;;;19.54;59.07;100636.97;1502310;129;26031;-85
2022/07/08 21:43:51;;;;;;;1.07;0.50;;;;;;;19.50;59.00;100633.02;1472331;133;26092;-85
2022/07/08 21:47:24;;;;;;;2.98;0.50;;;;;;;19.46;58.82;100628.66;1489145;129;26053;-89
2022/07/08 21:50:56;;;;;;;2.58;0.37;;;;;;;19.38;58.76;100625.22;1559840;124;25909;-85
2022/07/08 21:54:46;;;;;;;3.37;0.68;;;;;;;19.39;58.76;100626.52;1549496;127;26017;-86
2022/07/08 21:58:12;;;;;;;1.00;0.60;;;;;;;19.35;58.68;100624.34;1538337;127;25916;-84
2022/07/08 22:01:54;;;;;;;1.00;0.70;;;;;;;19.23;58.75;100632.36;1562761;122;25989;-84
2022/07/08 22:11:33;;;;;;;;;;;;;;;;;;;;;
2022/07/08 22:15:21;;;;;;;0.95;0.57;;;;;;;18.98;59.17;100633.00;1571307;123;25951;-86
2022/07/08 22:18:52;;;;;;;1.60;0.70;;;;;;;18.88;59.14;100625.58;;;;
2022/07/08 22:22:31;;;;;;;;;;;;;;;;;;;;;
2022/07/08 22:32:20;;;;;;;1.10;0.70;;;;;;;18.74;59.64;100628.75;1589582;123;26020;-84
2022/07/08 22:35:52;;;;;;;1.70;0.60;;;;;;;18.65;59.68;100626.13;1599041;123;26053;-83
2022/07/08 22:39:22;;;;;;;1.52;0.70;;;;;;;18.61;59.86;100629.23;1589469;120;32603;-84
2022/07/08 22:43:22;;;;;;;;;;;;;;;;;;;;;
2022/07/08 22:46:50;;;;;;;4.55;0.65;;;;;;;18.55;59.77;100620.02;1590003;121;25944;-83
2022/07/08 22:50:31;;;;;;;1.87;0.80;;;;;;;18.58;59.81;100617.80;1585469;121;26139;-84
2022/07/08 22:53:58;;;;;;;1.17;0.70;;;;;;;18.55;59.89;100617.82;1622079;116;25947;-84
2022/07/08 22:57:31;;;;;;;1.02;0.65;;;;;;;18.46;59.94;100614.80;1611630;119;26006;-85
2022/07/08 23:01:03;;;;;;;10.53;2.05;;;;;;;18.39;59.87;100617.00;1606197;119;26048;-83
2022/07/08 23:04:56;;;;;;;1.70;0.60;;;;;;;18.31;59.65;100612.22;1619183;119;26243;-83
2022/07/08 23:08:41;;;;;;;2.05;0.72;;;;;;;18.29;59.57;100610.02;1644672;118;25785;-84
2022/07/08 23:12:44;;;;;;;3.52;0.60;;;;;;;18.31;59.42;100617.05;1649050;118;25903;-83
2022/07/08 23:16:08;;;;;;;6.40;1.07;;;;;;;18.33;59.26;100615.74;1616710;121;25904;-84
2022/07/08 23:20:03;;;;;;;1.30;1.10;;;;;;;18.34;59.02;100614.41;1598981;121;26155;-85
2022/07/08 23:41:34;;;;;;;3.33;0.80;;;;;;;18.02;59.02;100611.91;1537573;125;26128;-83
2022/07/08 23:45:39;;;;;;;2.45;0.90;;;;;;;17.91;59.23;100601.80;1519272;123;26081;-83
2022/07/08 23:49:14;;;;;;;;;;;;;;;;;;;;;
2022/07/08 23:52:40;;;;;;;2.95;0.78;;;;;;;17.79;59.78;100607.13;1642428;118;26002;-83
2022/07/08 23:56:11;;;;;;;2.52;0.85;;;;;;;17.75;59.84;100616.78;1642429;118;26180;-84
2022/07/08 23:59:43;;;;;;;;;;;;;;;;;;;;;
